sensor_id;sensor_type;location;lat;lon;timestamp;P1;durP1;ratioP1;P2;durP2;ratioP2
7905;SDS011;13291;40.472;-3.878;2022-07-24T11:13:53;4.43;;;3.83;;
7905;SDS011;13291;40.472;-3.878;2022-07-24T11:16:26;4.10;;;3.40;;
7905;SDS011;13291;40.472;-3.878;2022-07-24T11:22:01;8.17;;;3.30;;
7905;SDS011;13291;40.472;-3.878;2022-07-24T11:24:41;4.60;;;3.20;;
7905;SDS011;13291;40.472;-3.878;2022-07-24T11:27:30;5.10;;;3.67;;
7905;SDS011;13291;40.472;-3.878;2022-07-24T11:30:09;3.60;;;3.20;;
7905;SDS011;13291;40.472;-3.878;2022-07-24T11:32:38;3.40;;;3.10;;
7905;SDS011;13291;40.472;-3.878;2022-07-24T11:35:06;4.13;;;3.10;;
7905;SDS011;13291;40.472;-3.878;2022-07-24T11:37:34;3.60;;;3.30;;
7905;SDS011;13291;40.472;-3.878;2022-07-24T11:40:02;3.67;;;3.37;;
7905;SDS011;13291;40.472;-3.878;2022-07-24T11:42:31;4.07;;;3.10;;
7905;SDS011;13291;40.472;-3.878;2022-07-24T11:44:59;5.70;;;3.57;;
7905;SDS011;13291;40.472;-3.878;2022-07-24T11:47:28;3.70;;;3.40;;
7905;SDS011;13291;40.472;-3.878;2022-07-24T11:49:56;5.27;;;3.47;;
7905;SDS011;13291;40.472;-3.878;2022-07-24T11:52:26;5.13;;;3.47;;
7905;SDS011;13291;40.472;-3.878;2022-07-24T11:54:56;4.17;;;3.23;;
7905;SDS011;13291;40.472;-3.878;2022-07-24T11:57:25;3.97;;;3.13;;
7905;SDS011;13291;40.472;-3.878;2022-07-24T11:59:53;3.37;;;3.07;;
7905;SDS011;13291;40.472;-3.878;2022-07-24T12:02:20;3.87;;;3.00;;
7905;SDS011;13291;40.472;-3.878;2022-07-24T12:04:50;4.97;;;2.40;;
7905;SDS011;13291;40.472;-3.878;2022-07-24T12:07:17;3.17;;;2.70;;
7905;SDS011;13291;40.472;-3.878;2022-07-24T12:09:47;3.43;;;2.70;;
7905;SDS011;13291;40.472;-3.878;2022-07-24T12:12:18;2.90;;;2.70;;
7905;SDS011;13291;40.472;-3.878;2022-07-24T12:14:50;3.50;;;2.53;;
7905;SDS011;13291;40.472;-3.878;2022-07-24T12:17:18;3.07;;;2.77;;
7905;SDS011;13291;40.472;-3.878;2022-07-24T12:19:53;4.17;;;2.70;;
7905;SDS011;13291;40.472;-3.878;2022-07-24T12:22:22;3.03;;;2.50;;
7905;SDS011;13291;40.472;-3.878;2022-07-24T12:24:50;5.83;;;3.37;;
7905;SDS011;13291;40.472;-3.878;2022-07-24T12:27:34;3.03;;;2.57;;
7905;SDS011;13291;40.472;-3.878;2022-07-24T12:30:03;3.70;;;2.73;;
7905;SDS011;13291;40.472;-3.878;2022-07-24T12:32:51;2.87;;;2.67;;
7905;SDS011;13291;40.472;-3.878;2022-07-24T12:35:23;4.90;;;2.33;;
7905;SDS011;13291;40.472;-3.878;2022-07-24T12:37:51;4.23;;;2.33;;
7905;SDS011;13291;40.472;-3.878;2022-07-24T12:40:22;2.50;;;2.30;;
7905;SDS011;13291;40.472;-3.878;2022-07-24T12:42:57;4.83;;;2.70;;
7905;SDS011;13291;40.472;-3.878;2022-07-24T12:45:26;3.67;;;2.40;;
7905;SDS011;13291;40.472;-3.878;2022-07-24T12:48:09;3.07;;;2.77;;
7905;SDS011;13291;40.472;-3.878;2022-07-24T12:50:50;8.67;;;2.80;;
7905;SDS011;13291;40.472;-3.878;2022-07-24T12:53:25;5.80;;;2.77;;
7905;SDS011;13291;40.472;-3.878;2022-07-24T12:56:03;6.27;;;2.53;;
7905;SDS011;13291;40.472;-3.878;2022-07-24T13:01:45;3.53;;;2.70;;
7905;SDS011;13291;40.472;-3.878;2022-07-24T13:04:15;2.93;;;2.73;;
7905;SDS011;13291;40.472;-3.878;2022-07-24T13:06:45;3.80;;;2.87;;
7905;SDS011;13291;40.472;-3.878;2022-07-24T13:09:13;5.50;;;3.20;;
7905;SDS011;13291;40.472;-3.878;2022-07-24T13:11:42;4.53;;;3.10;;
7905;SDS011;13291;40.472;-3.878;2022-07-24T13:14:10;3.67;;;3.10;;
7905;SDS011;13291;40.472;-3.878;2022-07-24T13:16:38;5.23;;;2.77;;
7905;SDS011;13291;40.472;-3.878;2022-07-24T13:19:07;5.30;;;3.00;;
7905;SDS011;13291;40.472;-3.878;2022-07-24T13:21:34;3.93;;;2.80;;
7905;SDS011;13291;40.472;-3.878;2022-07-24T13:24:03;3.93;;;2.70;;
7905;SDS011;13291;40.472;-3.878;2022-07-24T13:26:31;7.83;;;3.33;;
7905;SDS011;13291;40.472;-3.878;2022-07-24T13:28:58;5.20;;;3.10;;
7905;SDS011;13291;40.472;-3.878;2022-07-24T13:31:25;5.07;;;3.27;;
7905;SDS011;13291;40.472;-3.878;2022-07-24T13:33:52;7.50;;;3.17;;
7905;SDS011;13291;40.472;-3.878;2022-07-24T13:36:19;8.30;;;3.33;;
7905;SDS011;13291;40.472;-3.878;2022-07-24T13:38:46;4.90;;;2.63;;
7905;SDS011;13291;40.472;-3.878;2022-07-24T13:41:15;8.23;;;2.93;;
7905;SDS011;13291;40.472;-3.878;2022-07-24T13:43:43;4.73;;;2.80;;
7905;SDS011;13291;40.472;-3.878;2022-07-24T13:46:10;5.57;;;2.63;;
7905;SDS011;13291;40.472;-3.878;2022-07-24T13:48:39;5.30;;;2.50;;
7905;SDS011;13291;40.472;-3.878;2022-07-24T13:51:06;5.30;;;2.67;;
7905;SDS011;13291;40.472;-3.878;2022-07-24T13:53:32;5.83;;;2.40;;
7905;SDS011;13291;40.472;-3.878;2022-07-24T13:55:59;7.43;;;2.50;;
7905;SDS011;13291;40.472;-3.878;2022-07-24T13:58:28;3.93;;;2.20;;
7905;SDS011;13291;40.472;-3.878;2022-07-24T14:00:55;4.53;;;2.50;;
7905;SDS011;13291;40.472;-3.878;2022-07-24T14:03:22;5.73;;;2.67;;
7905;SDS011;13291;40.472;-3.878;2022-07-24T14:05:48;7.90;;;2.73;;
7905;SDS011;13291;40.472;-3.878;2022-07-24T14:08:15;7.60;;;3.07;;
7905;SDS011;13291;40.472;-3.878;2022-07-24T14:10:42;5.10;;;2.93;;
7905;SDS011;13291;40.472;-3.878;2022-07-24T14:13:09;6.67;;;2.47;;
7905;SDS011;13291;40.472;-3.878;2022-07-24T14:15:37;7.50;;;2.77;;
7905;SDS011;13291;40.472;-3.878;2022-07-24T14:18:04;4.60;;;2.60;;
7905;SDS011;13291;40.472;-3.878;2022-07-24T14:20:31;5.53;;;2.20;;
7905;SDS011;13291;40.472;-3.878;2022-07-24T14:22:58;5.80;;;2.50;;
7905;SDS011;13291;40.472;-3.878;2022-07-24T14:25:25;6.80;;;2.67;;
7905;SDS011;13291;40.472;-3.878;2022-07-24T14:27:52;5.50;;;2.50;;
7905;SDS011;13291;40.472;-3.878;2022-07-24T14:30:19;4.93;;;2.50;;
7905;SDS011;13291;40.472;-3.878;2022-07-24T14:32:48;4.27;;;2.33;;
7905;SDS011;13291;40.472;-3.878;2022-07-24T14:35:14;8.43;;;2.80;;
7905;SDS011;13291;40.472;-3.878;2022-07-24T14:37:42;4.90;;;2.63;;
7905;SDS011;13291;40.472;-3.878;2022-07-24T14:40:09;8.07;;;2.87;;
7905;SDS011;13291;40.472;-3.878;2022-07-24T14:42:36;13.10;;;3.17;;
7905;SDS011;13291;40.472;-3.878;2022-07-24T14:45:03;10.63;;;2.90;;
7905;SDS011;13291;40.472;-3.878;2022-07-24T14:47:30;9.10;;;2.50;;
7905;SDS011;13291;40.472;-3.878;2022-07-24T14:49:59;11.00;;;3.13;;
7905;SDS011;13291;40.472;-3.878;2022-07-24T14:52:26;8.37;;;3.43;;
7905;SDS011;13291;40.472;-3.878;2022-07-24T14:54:53;6.50;;;3.30;;
7905;SDS011;13291;40.472;-3.878;2022-07-24T14:57:20;8.90;;;3.17;;
7905;SDS011;13291;40.472;-3.878;2022-07-24T14:59:46;9.03;;;3.43;;
7905;SDS011;13291;40.472;-3.878;2022-07-24T15:02:14;6.20;;;3.47;;
7905;SDS011;13291;40.472;-3.878;2022-07-24T15:04:40;15.53;;;4.37;;
7905;SDS011;13291;40.472;-3.878;2022-07-24T15:07:09;16.50;;;4.00;;
7905;SDS011;13291;40.472;-3.878;2022-07-24T15:09:36;12.23;;;4.00;;
7905;SDS011;13291;40.472;-3.878;2022-07-24T15:12:03;17.63;;;3.93;;
7905;SDS011;13291;40.472;-3.878;2022-07-24T15:14:31;9.27;;;3.60;;
7905;SDS011;13291;40.472;-3.878;2022-07-24T15:16:58;16.20;;;3.70;;
7905;SDS011;13291;40.472;-3.878;2022-07-24T15:19:25;16.30;;;4.20;;
7905;SDS011;13291;40.472;-3.878;2022-07-24T15:21:52;18.07;;;4.07;;
7905;SDS011;13291;40.472;-3.878;2022-07-24T15:24:21;14.67;;;3.83;;
7905;SDS011;13291;40.472;-3.878;2022-07-24T15:26:48;10.10;;;3.50;;
7905;SDS011;13291;40.472;-3.878;2022-07-24T15:29:15;17.97;;;3.80;;
7905;SDS011;13291;40.472;-3.878;2022-07-24T15:31:42;10.70;;;3.50;;
7905;SDS011;13291;40.472;-3.878;2022-07-24T15:34:10;11.77;;;3.90;;
7905;SDS011;13291;40.472;-3.878;2022-07-24T15:36:37;14.43;;;3.93;;
7905;SDS011;13291;40.472;-3.878;2022-07-24T15:39:05;14.53;;;4.27;;
7905;SDS011;13291;40.472;-3.878;2022-07-24T15:41:36;14.77;;;4.83;;
7905;SDS011;13291;40.472;-3.878;2022-07-24T15:44:04;18.40;;;4.30;;
7905;SDS011;13291;40.472;-3.878;2022-07-24T15:46:31;15.70;;;4.60;;
7905;SDS011;13291;40.472;-3.878;2022-07-24T15:48:58;18.70;;;4.93;;
7905;SDS011;13291;40.472;-3.878;2022-07-24T15:51:25;16.10;;;4.40;;
7905;SDS011;13291;40.472;-3.878;2022-07-24T15:53:52;16.20;;;3.67;;
7905;SDS011;13291;40.472;-3.878;2022-07-24T15:56:19;17.53;;;4.60;;
7905;SDS011;13291;40.472;-3.878;2022-07-24T15:58:48;19.23;;;4.67;;
7905;SDS011;13291;40.472;-3.878;2022-07-24T16:01:15;14.50;;;4.60;;
7905;SDS011;13291;40.472;-3.878;2022-07-24T16:03:41;19.80;;;4.70;;
7905;SDS011;13291;40.472;-3.878;2022-07-24T16:06:08;18.93;;;4.70;;
7905;SDS011;13291;40.472;-3.878;2022-07-24T16:08:35;18.90;;;4.70;;
7905;SDS011;13291;40.472;-3.878;2022-07-24T16:11:02;18.13;;;4.77;;
7905;SDS011;13291;40.472;-3.878;2022-07-24T16:13:29;14.57;;;5.10;;
7905;SDS011;13291;40.472;-3.878;2022-07-24T16:15:58;18.03;;;4.97;;
7905;SDS011;13291;40.472;-3.878;2022-07-24T16:18:25;27.43;;;4.87;;
7905;SDS011;13291;40.472;-3.878;2022-07-24T16:20:52;17.50;;;4.40;;
7905;SDS011;13291;40.472;-3.878;2022-07-24T16:23:19;16.00;;;4.67;;
7905;SDS011;13291;40.472;-3.878;2022-07-24T16:25:45;16.10;;;4.57;;
7905;SDS011;13291;40.472;-3.878;2022-07-24T16:28:12;19.47;;;4.80;;
7905;SDS011;13291;40.472;-3.878;2022-07-24T16:30:39;18.73;;;5.47;;
7905;SDS011;13291;40.472;-3.878;2022-07-24T16:33:08;24.10;;;5.33;;
7905;SDS011;13291;40.472;-3.878;2022-07-24T16:35:35;22.77;;;5.53;;
7905;SDS011;13291;40.472;-3.878;2022-07-24T16:38:02;18.77;;;5.03;;
7905;SDS011;13291;40.472;-3.878;2022-07-24T16:40:29;17.07;;;4.90;;
7905;SDS011;13291;40.472;-3.878;2022-07-24T16:42:55;22.00;;;5.43;;
7905;SDS011;13291;40.472;-3.878;2022-07-24T16:45:22;22.27;;;4.73;;
7905;SDS011;13291;40.472;-3.878;2022-07-24T16:47:49;32.77;;;6.60;;
7905;SDS011;13291;40.472;-3.878;2022-07-24T16:50:18;22.13;;;7.23;;
7905;SDS011;13291;40.472;-3.878;2022-07-24T16:52:45;17.93;;;6.67;;
7905;SDS011;13291;40.472;-3.878;2022-07-24T16:55:12;13.40;;;5.13;;
7905;SDS011;13291;40.472;-3.878;2022-07-24T16:57:39;17.77;;;5.43;;
7905;SDS011;13291;40.472;-3.878;2022-07-24T17:00:06;17.70;;;4.70;;
7905;SDS011;13291;40.472;-3.878;2022-07-24T17:02:38;19.27;;;5.00;;
7905;SDS011;13291;40.472;-3.878;2022-07-24T17:05:07;17.87;;;4.80;;
7905;SDS011;13291;40.472;-3.878;2022-07-24T17:07:36;24.20;;;5.87;;
7905;SDS011;13291;40.472;-3.878;2022-07-24T17:10:04;17.00;;;4.90;;
7905;SDS011;13291;40.472;-3.878;2022-07-24T17:12:32;16.47;;;4.53;;
7905;SDS011;13291;40.472;-3.878;2022-07-24T17:14:59;22.40;;;4.67;;
7905;SDS011;13291;40.472;-3.878;2022-07-24T17:17:26;15.87;;;4.17;;
7905;SDS011;13291;40.472;-3.878;2022-07-24T17:20:13;19.27;;;4.40;;
7905;SDS011;13291;40.472;-3.878;2022-07-24T17:22:42;14.77;;;4.83;;
7905;SDS011;13291;40.472;-3.878;2022-07-24T17:25:09;21.20;;;5.73;;
7905;SDS011;13291;40.472;-3.878;2022-07-24T17:27:36;15.73;;;4.00;;
7905;SDS011;13291;40.472;-3.878;2022-07-24T17:30:03;17.27;;;4.60;;
7905;SDS011;13291;40.472;-3.878;2022-07-24T17:32:31;11.97;;;3.93;;
7905;SDS011;13291;40.472;-3.878;2022-07-24T17:34:58;13.57;;;4.23;;
7905;SDS011;13291;40.472;-3.878;2022-07-24T17:37:25;17.20;;;4.83;;
7905;SDS011;13291;40.472;-3.878;2022-07-24T17:39:54;17.27;;;4.00;;
7905;SDS011;13291;40.472;-3.878;2022-07-24T17:42:21;16.57;;;4.00;;
7905;SDS011;13291;40.472;-3.878;2022-07-24T17:44:48;16.10;;;3.90;;
7905;SDS011;13291;40.472;-3.878;2022-07-24T17:47:16;27.57;;;4.70;;
7905;SDS011;13291;40.472;-3.878;2022-07-24T17:49:43;19.30;;;4.50;;
7905;SDS011;13291;40.472;-3.878;2022-07-24T17:52:10;15.67;;;4.17;;
7905;SDS011;13291;40.472;-3.878;2022-07-24T17:54:37;13.53;;;3.40;;
7905;SDS011;13291;40.472;-3.878;2022-07-24T17:57:05;12.67;;;3.90;;
7905;SDS011;13291;40.472;-3.878;2022-07-24T17:59:32;16.73;;;4.33;;
7905;SDS011;13291;40.472;-3.878;2022-07-24T18:01:59;15.00;;;4.40;;
7905;SDS011;13291;40.472;-3.878;2022-07-24T18:04:26;16.60;;;4.47;;
7905;SDS011;13291;40.472;-3.878;2022-07-24T18:06:54;14.43;;;4.03;;
7905;SDS011;13291;40.472;-3.878;2022-07-24T18:09:21;16.37;;;4.40;;
7905;SDS011;13291;40.472;-3.878;2022-07-24T18:11:48;15.00;;;3.70;;
7905;SDS011;13291;40.472;-3.878;2022-07-24T18:14:17;18.13;;;4.63;;
7905;SDS011;13291;40.472;-3.878;2022-07-24T18:16:44;18.70;;;3.63;;
7905;SDS011;13291;40.472;-3.878;2022-07-24T18:19:11;15.73;;;4.73;;
7905;SDS011;13291;40.472;-3.878;2022-07-24T18:21:38;14.40;;;4.30;;
7905;SDS011;13291;40.472;-3.878;2022-07-24T18:24:06;18.63;;;4.07;;
7905;SDS011;13291;40.472;-3.878;2022-07-24T18:26:33;16.67;;;4.20;;
7905;SDS011;13291;40.472;-3.878;2022-07-24T18:29:00;16.87;;;3.40;;
7905;SDS011;13291;40.472;-3.878;2022-07-24T18:31:29;17.83;;;4.50;;
7905;SDS011;13291;40.472;-3.878;2022-07-24T18:33:56;15.77;;;4.03;;
7905;SDS011;13291;40.472;-3.878;2022-07-24T18:36:23;12.07;;;3.70;;
7905;SDS011;13291;40.472;-3.878;2022-07-24T18:38:51;15.13;;;3.73;;
7905;SDS011;13291;40.472;-3.878;2022-07-24T18:41:18;15.90;;;3.50;;
7905;SDS011;13291;40.472;-3.878;2022-07-24T18:43:46;15.13;;;4.47;;
7905;SDS011;13291;40.472;-3.878;2022-07-24T18:46:13;13.70;;;3.37;;
7905;SDS011;13291;40.472;-3.878;2022-07-24T18:48:41;15.03;;;4.03;;
7905;SDS011;13291;40.472;-3.878;2022-07-24T18:51:08;17.03;;;4.40;;
7905;SDS011;13291;40.472;-3.878;2022-07-24T18:53:36;12.67;;;4.30;;
7905;SDS011;13291;40.472;-3.878;2022-07-24T18:56:03;13.00;;;3.53;;
7905;SDS011;13291;40.472;-3.878;2022-07-24T18:58:30;14.07;;;3.43;;
7905;SDS011;13291;40.472;-3.878;2022-07-24T19:00:57;12.67;;;4.03;;
7905;SDS011;13291;40.472;-3.878;2022-07-24T19:03:24;12.53;;;3.80;;
7905;SDS011;13291;40.472;-3.878;2022-07-24T19:05:52;21.47;;;4.40;;
7905;SDS011;13291;40.472;-3.878;2022-07-24T19:08:19;17.30;;;3.83;;
7905;SDS011;13291;40.472;-3.878;2022-07-24T19:10:46;12.47;;;3.80;;
7905;SDS011;13291;40.472;-3.878;2022-07-24T19:13:13;9.60;;;3.50;;
7905;SDS011;13291;40.472;-3.878;2022-07-24T19:15:40;13.10;;;4.00;;
7905;SDS011;13291;40.472;-3.878;2022-07-24T19:18:07;11.00;;;3.53;;
7905;SDS011;13291;40.472;-3.878;2022-07-24T19:20:34;13.67;;;4.00;;
7905;SDS011;13291;40.472;-3.878;2022-07-24T19:23:02;15.30;;;3.30;;
7905;SDS011;13291;40.472;-3.878;2022-07-24T19:25:29;12.33;;;3.67;;
7905;SDS011;13291;40.472;-3.878;2022-07-24T19:27:56;11.93;;;4.47;;
7905;SDS011;13291;40.472;-3.878;2022-07-24T19:30:23;12.83;;;3.73;;
7905;SDS011;13291;40.472;-3.878;2022-07-24T19:32:50;15.33;;;4.03;;
7905;SDS011;13291;40.472;-3.878;2022-07-24T19:35:17;15.87;;;3.47;;
7905;SDS011;13291;40.472;-3.878;2022-07-24T19:37:44;15.77;;;3.73;;
7905;SDS011;13291;40.472;-3.878;2022-07-24T19:40:13;17.63;;;3.27;;
7905;SDS011;13291;40.472;-3.878;2022-07-24T19:42:39;20.23;;;4.13;;
7905;SDS011;13291;40.472;-3.878;2022-07-24T19:45:07;25.27;;;4.57;;
7905;SDS011;13291;40.472;-3.878;2022-07-24T19:47:34;17.47;;;3.90;;
7905;SDS011;13291;40.472;-3.878;2022-07-24T19:50:01;16.90;;;3.83;;
7905;SDS011;13291;40.472;-3.878;2022-07-24T19:52:29;14.70;;;3.87;;
7905;SDS011;13291;40.472;-3.878;2022-07-24T19:54:56;17.93;;;4.20;;
7905;SDS011;13291;40.472;-3.878;2022-07-24T19:57:24;13.90;;;3.87;;
7905;SDS011;13291;40.472;-3.878;2022-07-24T19:59:51;19.40;;;4.10;;
7905;SDS011;13291;40.472;-3.878;2022-07-24T20:02:18;16.20;;;3.70;;
7905;SDS011;13291;40.472;-3.878;2022-07-24T20:04:45;15.70;;;4.30;;
7905;SDS011;13291;40.472;-3.878;2022-07-24T20:07:12;17.00;;;4.80;;
7905;SDS011;13291;40.472;-3.878;2022-07-24T20:09:39;25.80;;;4.50;;
7905;SDS011;13291;40.472;-3.878;2022-07-24T20:12:06;16.40;;;4.70;;
7905;SDS011;13291;40.472;-3.878;2022-07-24T20:14:35;18.63;;;4.93;;
7905;SDS011;13291;40.472;-3.878;2022-07-24T20:17:02;17.27;;;4.63;;
7905;SDS011;13291;40.472;-3.878;2022-07-24T20:19:29;17.90;;;3.73;;
7905;SDS011;13291;40.472;-3.878;2022-07-24T20:21:56;21.73;;;4.67;;
7905;SDS011;13291;40.472;-3.878;2022-07-24T20:24:23;15.73;;;4.30;;
7905;SDS011;13291;40.472;-3.878;2022-07-24T20:26:50;15.90;;;4.40;;
7905;SDS011;13291;40.472;-3.878;2022-07-24T20:29:17;18.00;;;4.43;;
7905;SDS011;13291;40.472;-3.878;2022-07-24T20:31:45;20.37;;;4.80;;
7905;SDS011;13291;40.472;-3.878;2022-07-24T20:34:14;19.17;;;4.77;;
7905;SDS011;13291;40.472;-3.878;2022-07-24T20:36:41;22.87;;;5.00;;
7905;SDS011;13291;40.472;-3.878;2022-07-24T20:39:08;21.17;;;5.33;;
7905;SDS011;13291;40.472;-3.878;2022-07-24T20:41:35;12.23;;;3.70;;
7905;SDS011;13291;40.472;-3.878;2022-07-24T20:44:02;16.40;;;4.10;;
7905;SDS011;13291;40.472;-3.878;2022-07-24T20:46:29;22.60;;;4.63;;
7905;SDS011;13291;40.472;-3.878;2022-07-24T20:48:57;24.30;;;4.43;;
7905;SDS011;13291;40.472;-3.878;2022-07-24T20:51:24;15.33;;;4.80;;
7905;SDS011;13291;40.472;-3.878;2022-07-24T20:53:51;22.50;;;4.40;;
7905;SDS011;13291;40.472;-3.878;2022-07-24T20:56:18;13.67;;;4.10;;
7905;SDS011;13291;40.472;-3.878;2022-07-24T20:58:45;34.83;;;5.67;;
7905;SDS011;13291;40.472;-3.878;2022-07-24T21:01:11;18.10;;;4.17;;
7905;SDS011;13291;40.472;-3.878;2022-07-24T21:03:38;15.47;;;3.93;;
7905;SDS011;13291;40.472;-3.878;2022-07-24T21:06:07;17.60;;;4.27;;
7905;SDS011;13291;40.472;-3.878;2022-07-24T21:08:34;14.80;;;4.07;;
7905;SDS011;13291;40.472;-3.878;2022-07-24T21:11:01;20.47;;;5.20;;
7905;SDS011;13291;40.472;-3.878;2022-07-24T21:13:28;21.83;;;4.50;;
7905;SDS011;13291;40.472;-3.878;2022-07-24T21:15:54;16.83;;;4.50;;
7905;SDS011;13291;40.472;-3.878;2022-07-24T21:18:22;20.67;;;4.60;;
7905;SDS011;13291;40.472;-3.878;2022-07-24T21:20:49;14.67;;;4.73;;
7905;SDS011;13291;40.472;-3.878;2022-07-24T21:23:19;18.00;;;4.47;;
7905;SDS011;13291;40.472;-3.878;2022-07-24T21:25:46;16.60;;;4.00;;
7905;SDS011;13291;40.472;-3.878;2022-07-24T21:28:13;12.80;;;4.23;;
7905;SDS011;13291;40.472;-3.878;2022-07-24T21:30:40;17.50;;;4.33;;
7905;SDS011;13291;40.472;-3.878;2022-07-24T21:33:08;15.10;;;3.73;;
7905;SDS011;13291;40.472;-3.878;2022-07-24T21:35:36;16.67;;;3.73;;
7905;SDS011;13291;40.472;-3.878;2022-07-24T21:38:03;19.60;;;4.23;;
7905;SDS011;13291;40.472;-3.878;2022-07-24T21:40:32;17.53;;;3.53;;
7905;SDS011;13291;40.472;-3.878;2022-07-24T21:42:59;15.27;;;3.80;;
7905;SDS011;13291;40.472;-3.878;2022-07-24T21:45:26;14.30;;;3.53;;
7905;SDS011;13291;40.472;-3.878;2022-07-24T21:47:53;16.07;;;4.27;;
7905;SDS011;13291;40.472;-3.878;2022-07-24T21:50:20;19.37;;;4.00;;
7905;SDS011;13291;40.472;-3.878;2022-07-24T21:52:47;16.83;;;4.07;;
7905;SDS011;13291;40.472;-3.878;2022-07-24T21:55:14;14.60;;;3.77;;
7905;SDS011;13291;40.472;-3.878;2022-07-24T21:57:42;13.77;;;3.83;;
7905;SDS011;13291;40.472;-3.878;2022-07-24T22:00:10;13.27;;;3.43;;
7905;SDS011;13291;40.472;-3.878;2022-07-24T22:02:38;16.07;;;3.90;;
7905;SDS011;13291;40.472;-3.878;2022-07-24T22:05:05;11.83;;;3.93;;
7905;SDS011;13291;40.472;-3.878;2022-07-24T22:07:33;18.10;;;3.93;;
7905;SDS011;13291;40.472;-3.878;2022-07-24T22:10:00;16.60;;;3.80;;
7905;SDS011;13291;40.472;-3.878;2022-07-24T22:12:28;16.40;;;4.50;;
7905;SDS011;13291;40.472;-3.878;2022-07-24T22:14:56;14.00;;;3.80;;
7905;SDS011;13291;40.472;-3.878;2022-07-24T22:17:23;16.17;;;3.87;;
7905;SDS011;13291;40.472;-3.878;2022-07-24T22:19:50;14.57;;;4.30;;
7905;SDS011;13291;40.472;-3.878;2022-07-24T22:22:17;15.10;;;3.63;;
7905;SDS011;13291;40.472;-3.878;2022-07-24T22:24:44;14.47;;;3.10;;
7905;SDS011;13291;40.472;-3.878;2022-07-24T22:27:11;14.40;;;3.47;;
7905;SDS011;13291;40.472;-3.878;2022-07-24T22:29:38;16.23;;;3.40;;
7905;SDS011;13291;40.472;-3.878;2022-07-24T22:32:07;17.37;;;4.27;;
7905;SDS011;13291;40.472;-3.878;2022-07-24T22:34:35;15.93;;;4.37;;
7905;SDS011;13291;40.472;-3.878;2022-07-24T22:37:02;12.53;;;3.50;;
7905;SDS011;13291;40.472;-3.878;2022-07-24T22:39:30;21.20;;;4.17;;
7905;SDS011;13291;40.472;-3.878;2022-07-24T22:41:58;10.33;;;3.33;;
7905;SDS011;13291;40.472;-3.878;2022-07-24T22:44:26;13.83;;;3.93;;
7905;SDS011;13291;40.472;-3.878;2022-07-24T22:46:54;20.73;;;4.30;;
7905;SDS011;13291;40.472;-3.878;2022-07-24T22:49:23;10.60;;;4.10;;
7905;SDS011;13291;40.472;-3.878;2022-07-24T22:51:50;11.83;;;4.13;;
7905;SDS011;13291;40.472;-3.878;2022-07-24T22:54:17;14.63;;;4.50;;
7905;SDS011;13291;40.472;-3.878;2022-07-24T22:56:45;19.27;;;4.13;;
7905;SDS011;13291;40.472;-3.878;2022-07-24T22:59:12;16.13;;;3.73;;
7905;SDS011;13291;40.472;-3.878;2022-07-24T23:01:40;14.20;;;4.00;;
7905;SDS011;13291;40.472;-3.878;2022-07-24T23:04:07;15.93;;;3.87;;
7905;SDS011;13291;40.472;-3.878;2022-07-24T23:06:35;16.77;;;4.57;;
7905;SDS011;13291;40.472;-3.878;2022-07-24T23:09:03;15.20;;;4.13;;
7905;SDS011;13291;40.472;-3.878;2022-07-24T23:11:29;17.87;;;4.20;;
7905;SDS011;13291;40.472;-3.878;2022-07-24T23:13:56;14.00;;;4.00;;
7905;SDS011;13291;40.472;-3.878;2022-07-24T23:16:23;13.60;;;4.20;;
7905;SDS011;13291;40.472;-3.878;2022-07-24T23:18:50;13.17;;;3.97;;
7905;SDS011;13291;40.472;-3.878;2022-07-24T23:21:17;18.00;;;4.47;;
7905;SDS011;13291;40.472;-3.878;2022-07-24T23:23:46;19.70;;;4.17;;
7905;SDS011;13291;40.472;-3.878;2022-07-24T23:26:13;15.07;;;3.83;;
7905;SDS011;13291;40.472;-3.878;2022-07-24T23:28:40;19.47;;;4.83;;
7905;SDS011;13291;40.472;-3.878;2022-07-24T23:31:06;19.57;;;4.77;;
7905;SDS011;13291;40.472;-3.878;2022-07-24T23:33:33;19.67;;;4.23;;
7905;SDS011;13291;40.472;-3.878;2022-07-24T23:36:00;15.10;;;4.87;;
7905;SDS011;13291;40.472;-3.878;2022-07-24T23:38:27;13.93;;;5.10;;
7905;SDS011;13291;40.472;-3.878;2022-07-24T23:40:55;12.27;;;4.20;;
7905;SDS011;13291;40.472;-3.878;2022-07-24T23:43:22;21.20;;;4.60;;
7905;SDS011;13291;40.472;-3.878;2022-07-24T23:45:49;14.43;;;4.33;;
7905;SDS011;13291;40.472;-3.878;2022-07-24T23:48:16;21.30;;;4.17;;
7905;SDS011;13291;40.472;-3.878;2022-07-24T23:50:43;19.10;;;4.80;;
7905;SDS011;13291;40.472;-3.878;2022-07-24T23:53:10;13.10;;;4.10;;
7905;SDS011;13291;40.472;-3.878;2022-07-24T23:55:37;14.20;;;4.60;;
7905;SDS011;13291;40.472;-3.878;2022-07-24T23:58:05;14.73;;;4.20;;
